createdAt,value
2023-05-08T00:00:08.946Z,96100.28
2023-05-08T00:01:10.535Z,96099.69
2023-05-08T00:02:12.132Z,96103.53
2023-05-08T00:03:13.947Z,96097.38
2023-05-08T00:04:15.939Z,96100.38
2023-05-08T00:05:17.807Z,96104.56
2023-05-08T00:06:19.601Z,96105.00
2023-05-08T00:07:21.177Z,96097.63
2023-05-08T00:08:23.069Z,96101.53
2023-05-08T00:09:24.604Z,96100.94
2023-05-08T00:10:26.211Z,96099.22
2023-05-08T00:11:27.788Z,96101.53
2023-05-08T00:12:29.394Z,96103.88
2023-05-08T00:13:31.070Z,96099.78
2023-05-08T00:14:32.712Z,96099.72
2023-05-08T00:15:36.271Z,96099.13
2023-05-08T00:16:37.866Z,96097.31
2023-05-08T00:17:39.502Z,96101.75
2023-05-08T00:18:41.132Z,96097.88
2023-05-08T00:19:42.692Z,96093.81
2023-05-08T00:20:44.301Z,96100.78
2023-05-08T00:21:45.872Z,96102.25
2023-05-08T00:22:47.432Z,96106.84
2023-05-08T00:23:49.005Z,96109.34
2023-05-08T00:24:50.599Z,96097.78
2023-05-08T00:25:52.156Z,96104.66
2023-05-08T00:26:53.725Z,96105.44
2023-05-08T00:27:55.676Z,96096.72
2023-05-08T00:28:58.076Z,96101.25
2023-05-08T00:29:59.586Z,96104.72
2023-05-08T00:31:02.185Z,96096.13
2023-05-08T00:32:03.822Z,96107.25
2023-05-08T00:33:05.503Z,96106.75
2023-05-08T00:34:07.125Z,96107.13
2023-05-08T00:35:08.921Z,96104.84
2023-05-08T00:36:10.501Z,96102.94
2023-05-08T00:37:12.102Z,96107.75
2023-05-08T00:38:13.836Z,96112.53
2023-05-08T00:39:15.649Z,96103.94
2023-05-08T00:40:17.253Z,96104.38
2023-05-08T00:41:18.827Z,96104.22
2023-05-08T00:42:20.391Z,96106.44
2023-05-08T00:43:25.758Z,96105.78
2023-05-08T00:44:27.415Z,96110.81
2023-05-08T00:45:34.901Z,96110.50
2023-05-08T00:46:37.173Z,96105.56
2023-05-08T00:47:38.990Z,96106.53
2023-05-08T00:48:40.852Z,96100.22
2023-05-08T00:49:42.870Z,96107.75
2023-05-08T00:50:44.572Z,96102.94
2023-05-08T00:51:47.910Z,96110.88
2023-05-08T00:52:50.236Z,96104.41
2023-05-08T00:53:51.897Z,96105.22
2023-05-08T00:54:54.048Z,96104.50
2023-05-08T00:55:55.777Z,96110.13
2023-05-08T00:56:57.570Z,96104.22
2023-05-08T00:57:59.561Z,96104.13
2023-05-08T00:59:01.552Z,96106.22
2023-05-08T01:00:04.721Z,96102.09
2023-05-08T01:01:06.598Z,96107.94
2023-05-08T01:02:33.882Z,96104.50
2023-05-08T01:03:36.457Z,96102.25
2023-05-08T01:04:38.505Z,96108.94
2023-05-08T01:05:41.399Z,96109.53
2023-05-08T01:06:43.272Z,96115.56
2023-05-08T01:07:48.507Z,96114.22
2023-05-08T01:08:51.583Z,96116.25
2023-05-08T01:09:53.693Z,96111.00
2023-05-08T01:11:02.089Z,96106.00
2023-05-08T01:12:21.604Z,96105.31
2023-05-08T01:13:32.456Z,96116.31
2023-05-08T01:15:06.594Z,96105.38
2023-05-08T01:16:11.755Z,96122.00
2023-05-08T01:17:42.965Z,96117.25
2023-05-08T01:18:51.112Z,96118.31
2023-05-08T01:20:10.369Z,96112.09
2023-05-08T01:21:50.660Z,96110.75
2023-05-08T01:23:07.652Z,96111.66
2023-05-08T01:24:39.159Z,96114.28
2023-05-08T01:26:20.557Z,96118.13
2023-05-08T01:27:47.277Z,96114.63
2023-05-08T01:29:31.118Z,96113.41
2023-05-08T01:31:10.770Z,96111.31
2023-05-08T01:32:18.550Z,96104.34
2023-05-08T01:33:26.680Z,96116.84
2023-05-08T01:34:32.040Z,96118.66
2023-05-08T01:35:50.079Z,96110.09
2023-05-08T01:36:55.108Z,96120.91
2023-05-08T01:38:10.271Z,96114.84
2023-05-08T01:39:24.526Z,96114.50
2023-05-08T01:41:07.738Z,96119.44
2023-05-08T01:42:33.478Z,96121.44
2023-05-08T01:44:11.134Z,96115.19
2023-05-08T01:45:29.753Z,96112.44
2023-05-08T01:46:33.449Z,96112.31
2023-05-08T01:47:38.367Z,96122.09
2023-05-08T01:48:51.518Z,96120.03
2023-05-08T01:50:07.879Z,96118.84
2023-05-08T01:51:18.790Z,96115.53
2023-05-08T01:52:30.581Z,96127.84
2023-05-08T01:53:38.576Z,96130.13
2023-05-08T01:54:44.975Z,96125.44
2023-05-08T01:55:48.468Z,96128.66
2023-05-08T01:56:54.202Z,96131.06
2023-05-08T01:57:59.375Z,96131.06
2023-05-08T01:59:02.816Z,96130.00
2023-05-08T02:00:06.103Z,96137.09
2023-05-08T02:01:16.669Z,96133.59
2023-05-08T02:02:21.024Z,96125.44
2023-05-08T02:03:23.511Z,96132.13
2023-05-08T02:04:26.428Z,96135.44
2023-05-08T02:05:29.082Z,96134.53
2023-05-08T02:06:32.437Z,96132.94
2023-05-08T02:07:39.049Z,96132.00
2023-05-08T02:08:42.112Z,96125.34
2023-05-08T02:09:47.453Z,96126.19
2023-05-08T02:10:51.646Z,96126.50
2023-05-08T02:11:54.809Z,96134.41
2023-05-08T02:12:57.613Z,96127.19
2023-05-08T02:14:02.006Z,96136.03
2023-05-08T02:15:06.211Z,96130.31
2023-05-08T02:16:09.742Z,96133.97
2023-05-08T02:17:13.095Z,96122.28
2023-05-08T02:18:16.146Z,96131.66
2023-05-08T02:19:19.048Z,96134.53
2023-05-08T02:20:21.688Z,96134.75
2023-05-08T02:21:24.052Z,96128.50
2023-05-08T02:22:26.020Z,96131.94
2023-05-08T02:23:28.376Z,96129.75
2023-05-08T02:24:30.853Z,96125.38
2023-05-08T02:25:32.915Z,96132.81
2023-05-08T02:26:35.558Z,96124.69
2023-05-08T02:27:37.814Z,96126.06
2023-05-08T02:28:40.689Z,96132.47
2023-05-08T02:29:43.273Z,96132.47
2023-05-08T02:30:46.640Z,96121.94
2023-05-08T02:31:49.355Z,96122.75
2023-05-08T02:32:58.273Z,96129.03
2023-05-08T02:34:07.766Z,96139.91
2023-05-08T02:35:15.649Z,96127.91
2023-05-08T02:36:20.360Z,96139.00
2023-05-08T02:37:23.394Z,96131.13
2023-05-08T02:38:27.406Z,96134.13
2023-05-08T02:39:31.232Z,96136.16
2023-05-08T02:40:33.900Z,96131.25
2023-05-08T02:41:36.692Z,96130.44
2023-05-08T02:42:40.004Z,96137.09
2023-05-08T02:43:42.292Z,96129.50
2023-05-08T02:44:44.087Z,96139.38
2023-05-08T02:45:50.471Z,96134.47
2023-05-08T02:47:12.964Z,96129.41
2023-05-08T02:48:34.064Z,96122.88
2023-05-08T02:49:38.862Z,96131.25
2023-05-08T02:50:53.317Z,96123.56
2023-05-08T02:52:01.126Z,96132.50
2023-05-08T02:53:07.140Z,96131.00
2023-05-08T02:54:12.178Z,96133.41
2023-05-08T02:55:20.108Z,96137.75
2023-05-08T02:56:35.042Z,96132.03
2023-05-08T02:57:42.626Z,96137.56
2023-05-08T02:58:54.200Z,96133.75
2023-05-08T03:00:37.788Z,96138.91
2023-05-08T03:01:49.501Z,96135.25
2023-05-08T03:03:08.724Z,96132.97
2023-05-08T03:04:12.479Z,96134.78
2023-05-08T03:05:17.861Z,96139.69
2023-05-08T03:06:22.098Z,96134.34
2023-05-08T03:07:26.192Z,96134.78
2023-05-08T03:08:31.952Z,96135.22
2023-05-08T03:09:46.355Z,96137.88
2023-05-08T03:10:52.970Z,96135.34
2023-05-08T03:12:03.862Z,96135.81
2023-05-08T03:13:09.474Z,96133.94
2023-05-08T03:14:13.145Z,96136.69
2023-05-08T03:15:43.788Z,96133.28
2023-05-08T03:16:46.925Z,96138.56
2023-05-08T03:17:49.452Z,96134.53
2023-05-08T03:18:55.120Z,96131.34
2023-05-08T03:19:58.911Z,96131.47
2023-05-08T03:21:01.536Z,96135.00
2023-05-08T03:22:04.606Z,96138.56
2023-05-08T03:23:08.886Z,96137.63
2023-05-08T03:24:11.265Z,96136.25
2023-05-08T03:25:15.668Z,96139.50
2023-05-08T03:26:38.684Z,96138.69
2023-05-08T03:27:42.619Z,96124.47
2023-05-08T03:28:45.883Z,96138.47
2023-05-08T03:29:53.835Z,96135.44
2023-05-08T03:30:57.012Z,96136.50
2023-05-08T03:32:00.793Z,96141.31
2023-05-08T03:33:04.993Z,96139.25
2023-05-08T03:34:09.352Z,96148.63
2023-05-08T03:35:11.718Z,96142.31
2023-05-08T03:36:14.392Z,96136.81
2023-05-08T03:37:16.444Z,96141.44
2023-05-08T03:38:19.936Z,96138.22
2023-05-08T03:39:22.340Z,96140.25
2023-05-08T03:40:24.475Z,96137.63
2023-05-08T03:41:26.914Z,96144.19
2023-05-08T03:42:31.700Z,96131.47
2023-05-08T03:43:34.465Z,96136.59
2023-05-08T03:44:36.671Z,96146.56
2023-05-08T03:45:40.167Z,96139.69
2023-05-08T03:46:44.831Z,96138.31
2023-05-08T03:47:47.238Z,96141.31
2023-05-08T03:48:50.207Z,96138.22
2023-05-08T03:49:53.420Z,96139.13
2023-05-08T03:50:55.811Z,96137.63
2023-05-08T03:51:58.418Z,96139.22
2023-05-08T03:53:00.541Z,96138.41
2023-05-08T03:54:02.949Z,96146.94
2023-05-08T03:55:08.792Z,96140.03
2023-05-08T03:56:11.464Z,96141.31
2023-05-08T03:57:13.629Z,96145.19
2023-05-08T03:58:22.262Z,96142.44
2023-05-08T03:59:47.380Z,96141.16
2023-05-08T04:00:54.182Z,96147.13
2023-05-08T04:02:19.511Z,96145.88
2023-05-08T04:03:28.178Z,96145.78
2023-05-08T04:04:39.873Z,96147.47
2023-05-08T04:06:01.974Z,96150.81
2023-05-08T04:07:17.073Z,96154.47
2023-05-08T04:08:25.547Z,96152.06
2023-05-08T04:09:31.760Z,96160.53
2023-05-08T04:10:44.746Z,96155.25
2023-05-08T04:12:04.596Z,96166.81
2023-05-08T04:13:14.359Z,96155.56
2023-05-08T04:14:21.831Z,96162.66
2023-05-08T04:15:28.400Z,96160.16
2023-05-08T04:16:36.455Z,96165.22
2023-05-08T04:17:46.793Z,96161.31
2023-05-08T04:18:51.053Z,96160.16
2023-05-08T04:19:59.672Z,96160.06
2023-05-08T04:21:01.975Z,96162.84
2023-05-08T04:22:07.767Z,96164.31
2023-05-08T04:23:12.312Z,96162.84
2023-05-08T04:24:16.288Z,96167.28
2023-05-08T04:25:20.882Z,96169.81
2023-05-08T04:26:23.449Z,96169.66
2023-05-08T04:27:28.010Z,96176.53
2023-05-08T04:28:30.208Z,96178.16
2023-05-08T04:29:34.280Z,96175.16
2023-05-08T04:30:38.304Z,96177.69
2023-05-08T04:31:41.966Z,96177.78
2023-05-08T04:32:46.399Z,96179.84
2023-05-08T04:33:50.017Z,96178.25
2023-05-08T04:34:53.573Z,96168.50
2023-05-08T04:35:57.367Z,96170.09
2023-05-08T04:36:59.766Z,96174.00
2023-05-08T04:38:01.884Z,96179.81
2023-05-08T04:39:04.457Z,96171.91
2023-05-08T04:40:09.031Z,96182.09
2023-05-08T04:41:10.864Z,96184.41
2023-05-08T04:42:15.300Z,96173.47
2023-05-08T04:43:17.611Z,96181.19
2023-05-08T04:44:20.993Z,96190.13
2023-05-08T04:45:24.247Z,96180.94
2023-05-08T04:46:30.376Z,96183.13
2023-05-08T04:47:33.205Z,96188.94
2023-05-08T04:48:36.520Z,96193.50
2023-05-08T04:49:38.823Z,96189.22
2023-05-08T04:50:41.022Z,96193.50
2023-05-08T04:51:43.292Z,96196.16
2023-05-08T04:52:46.816Z,96188.63
2023-05-08T04:53:49.227Z,96193.50
2023-05-08T04:54:51.292Z,96188.44
2023-05-08T04:55:54.094Z,96199.69
2023-05-08T04:56:56.312Z,96199.78
2023-05-08T04:58:00.476Z,96194.13
2023-05-08T04:59:03.234Z,96195.09
2023-05-08T05:00:07.628Z,96195.78
2023-05-08T05:01:13.750Z,96195.78
2023-05-08T05:02:16.707Z,96201.31
2023-05-08T05:03:18.570Z,96199.66
2023-05-08T05:04:22.217Z,96204.03
2023-05-08T05:05:26.600Z,96205.38
2023-05-08T05:06:28.734Z,96205.53
2023-05-08T05:07:32.395Z,96209.31
2023-05-08T05:08:34.879Z,96202.78
2023-05-08T05:09:37.269Z,96211.41
2023-05-08T05:10:40.380Z,96208.84
2023-05-08T05:11:43.050Z,96208.97
2023-05-08T05:12:45.339Z,96208.19
2023-05-08T05:13:47.263Z,96209.78
2023-05-08T05:14:49.365Z,96212.88
2023-05-08T05:15:54.694Z,96206.72
2023-05-08T05:16:58.126Z,96209.38
2023-05-08T05:18:00.734Z,96216.38
2023-05-08T05:19:03.192Z,96214.63
2023-05-08T05:20:07.952Z,96213.59
2023-05-08T05:21:11.809Z,96217.09
2023-05-08T05:22:16.807Z,96212.13
2023-05-08T05:23:19.345Z,96218.94
2023-05-08T05:24:21.890Z,96209.72
2023-05-08T05:25:23.780Z,96209.28
2023-05-08T05:26:25.690Z,96225.13
2023-05-08T05:27:28.878Z,96215.19
2023-05-08T05:28:31.159Z,96217.00
2023-05-08T05:29:33.616Z,96221.56
2023-05-08T05:30:35.844Z,96221.09
2023-05-08T05:31:39.641Z,96215.34
2023-05-08T05:32:43.239Z,96215.78
2023-05-08T05:33:45.853Z,96212.13
2023-05-08T05:34:48.427Z,96216.81
2023-05-08T05:35:50.236Z,96220.25
2023-05-08T05:36:53.342Z,96220.00
2023-05-08T05:37:55.496Z,96229.09
2023-05-08T05:38:57.554Z,96225.34
2023-05-08T05:39:59.415Z,96230.69
2023-05-08T05:41:01.580Z,96223.97
2023-05-08T05:42:04.170Z,96228.38
2023-05-08T05:43:06.597Z,96231.69
2023-05-08T05:44:08.613Z,96229.16
2023-05-08T05:45:10.649Z,96233.88
2023-05-08T05:46:13.497Z,96236.22
2023-05-08T05:47:16.404Z,96231.44
2023-05-08T05:48:18.682Z,96239.31
2023-05-08T05:49:21.196Z,96238.00
2023-05-08T05:50:23.953Z,96232.00
2023-05-08T05:51:27.711Z,96234.19
2023-05-08T05:52:30.074Z,96236.56
2023-05-08T05:53:32.122Z,96242.81
2023-05-08T05:54:34.119Z,96233.38
2023-05-08T05:55:36.518Z,96237.97
2023-05-08T05:56:41.281Z,96241.63
2023-05-08T05:57:43.529Z,96241.16
2023-05-08T05:58:46.698Z,96245.59
2023-05-08T05:59:49.040Z,96244.69
2023-05-08T06:00:52.375Z,96237.75
2023-05-08T06:01:55.134Z,96248.81
2023-05-08T06:02:57.864Z,96237.28
2023-05-08T06:04:00.017Z,96239.03
2023-05-08T06:05:01.817Z,96240.00
2023-05-08T06:06:05.436Z,96241.78
2023-05-08T06:07:07.179Z,96240.38
2023-05-08T06:08:10.808Z,96236.84
2023-05-08T06:09:12.598Z,96243.91
2023-05-08T06:10:14.961Z,96236.84
2023-05-08T06:11:17.915Z,96242.34
2023-05-08T06:12:20.985Z,96237.84
2023-05-08T06:13:22.867Z,96247.69
2023-05-08T06:14:26.161Z,96237.41
2023-05-08T06:15:28.275Z,96243.25
2023-05-08T06:16:30.782Z,96249.13
2023-05-08T06:17:32.932Z,96245.66
2023-05-08T06:18:35.318Z,96246.72
2023-05-08T06:19:37.036Z,96247.22
2023-05-08T06:20:39.224Z,96256.59
2023-05-08T06:21:41.983Z,96242.81
2023-05-08T06:22:43.684Z,96249.63
2023-05-08T06:23:47.135Z,96256.91
2023-05-08T06:24:50.065Z,96255.53
2023-05-08T06:25:52.327Z,96245.94
2023-05-08T06:26:54.403Z,96245.50
2023-05-08T06:27:59.339Z,96253.66
2023-05-08T06:29:01.881Z,96254.88
2023-05-08T06:30:04.839Z,96245.91
2023-05-08T06:31:06.639Z,96253.34
2023-05-08T06:32:09.224Z,96247.50
2023-05-08T06:33:11.675Z,96253.25
2023-05-08T06:34:14.266Z,96259.25
2023-05-08T06:35:18.704Z,96250.69
2023-05-08T06:36:20.574Z,96258.56
2023-05-08T06:37:22.917Z,96250.84
2023-05-08T06:38:25.043Z,96260.09
2023-05-08T06:39:27.426Z,96253.16
2023-05-08T06:40:29.992Z,96259.69
2023-05-08T06:41:31.996Z,96257.94
2023-05-08T06:42:35.131Z,96259.97
2023-05-08T06:43:37.624Z,96255.06
2023-05-08T06:44:40.952Z,96262.38
2023-05-08T06:45:46.110Z,96261.97
2023-05-08T06:46:48.405Z,96263.59
2023-05-08T06:47:51.644Z,96258.09
2023-05-08T06:48:53.768Z,96264.97
2023-05-08T06:49:56.475Z,96246.28
2023-05-08T06:50:59.125Z,96262.63
2023-05-08T06:52:01.617Z,96262.19
2023-05-08T06:53:04.529Z,96260.09
2023-05-08T06:54:09.101Z,96257.03
2023-05-08T06:55:10.934Z,96267.06
2023-05-08T06:56:13.079Z,96267.91
2023-05-08T06:57:16.275Z,96260.28
2023-05-08T06:58:18.012Z,96260.75
2023-05-08T06:59:21.309Z,96260.91
2023-05-08T07:00:24.331Z,96267.63
2023-05-08T07:01:27.652Z,96267.88
2023-05-08T07:02:29.907Z,96260.91
2023-05-08T07:03:32.025Z,96259.78
2023-05-08T07:04:34.571Z,96262.63
2023-05-08T07:05:36.743Z,96260.63
2023-05-08T07:06:38.826Z,96265.38
2023-05-08T07:07:43.098Z,96266.59
2023-05-08T07:08:46.016Z,96270.47
2023-05-08T07:09:48.135Z,96274.75
2023-05-08T07:10:49.956Z,96274.56
2023-05-08T07:11:51.699Z,96271.00
2023-05-08T07:12:53.947Z,96271.75
2023-05-08T07:13:56.505Z,96274.97
2023-05-08T07:14:59.678Z,96280.13
2023-05-08T07:16:09.063Z,96277.91
2023-05-08T07:17:11.284Z,96276.84
2023-05-08T07:18:13.159Z,96267.84
2023-05-08T07:19:15.564Z,96282.91
2023-05-08T07:20:17.764Z,96272.81
2023-05-08T07:21:20.820Z,96279.78
2023-05-08T07:22:23.073Z,96275.38
2023-05-08T07:23:28.743Z,96283.72
2023-05-08T07:24:31.069Z,96277.16
2023-05-08T07:25:33.250Z,96274.56
2023-05-08T07:26:35.341Z,96274.69
2023-05-08T07:27:37.439Z,96277.25
2023-05-08T07:28:39.533Z,96273.84
2023-05-08T07:29:42.839Z,96270.47
2023-05-08T07:30:44.801Z,96275.47
2023-05-08T07:31:48.445Z,96279.63
2023-05-08T07:32:50.649Z,96270.47
2023-05-08T07:33:52.636Z,96278.91
2023-05-08T07:34:54.630Z,96280.41
2023-05-08T07:35:56.738Z,96287.56
2023-05-08T07:37:00.902Z,96271.09
2023-05-08T07:38:02.976Z,96277.84
2023-05-08T07:39:05.016Z,96278.53
2023-05-08T07:40:07.405Z,96273.38
2023-05-08T07:41:10.262Z,96274.44
2023-05-08T07:42:12.943Z,96276.09
2023-05-08T07:43:15.482Z,96276.56
2023-05-08T07:44:17.673Z,96274.50
2023-05-08T07:45:19.397Z,96279.31
2023-05-08T07:46:21.839Z,96284.09
2023-05-08T07:47:23.913Z,96279.91
2023-05-08T07:48:26.684Z,96279.03
2023-05-08T07:49:28.894Z,96278.91
2023-05-08T07:50:31.625Z,96275.88
2023-05-08T07:51:33.373Z,96277.97
2023-05-08T07:52:35.061Z,96278.16
2023-05-08T07:53:37.149Z,96279.59
2023-05-08T07:54:39.285Z,96279.13
2023-05-08T07:55:41.151Z,96275.75
2023-05-08T07:56:43.293Z,96284.34
2023-05-08T07:57:46.266Z,96280.16
2023-05-08T07:58:48.233Z,96280.88
2023-05-08T07:59:50.933Z,96279.97
2023-05-08T08:00:53.159Z,96278.56
2023-05-08T08:01:54.963Z,96277.75
2023-05-08T08:02:57.962Z,96285.47
2023-05-08T08:04:00.914Z,96278.53
2023-05-08T08:05:03.050Z,96282.44
2023-05-08T08:06:04.911Z,96277.38
2023-05-08T08:07:08.993Z,96275.75
2023-05-08T08:08:11.686Z,96279.63
2023-05-08T08:09:13.785Z,96283.09
2023-05-08T08:10:16.343Z,96283.03
2023-05-08T08:11:18.183Z,96282.75
2023-05-08T08:12:20.933Z,96282.22
2023-05-08T08:13:22.815Z,96283.78
2023-05-08T08:14:25.081Z,96287.84
2023-05-08T08:15:28.633Z,96285.19
2023-05-08T08:16:32.974Z,96284.53
2023-05-08T08:17:35.245Z,96287.16
2023-05-08T08:18:37.479Z,96280.94
2023-05-08T08:19:39.383Z,96276.47
2023-05-08T08:20:41.525Z,96277.56
2023-05-08T08:21:44.601Z,96284.56
2023-05-08T08:22:47.191Z,96279.84
2023-05-08T08:23:49.034Z,96285.38
2023-05-08T08:24:52.472Z,96286.41
2023-05-08T08:25:57.099Z,96281.22
2023-05-08T08:26:59.029Z,96282.50
2023-05-08T08:28:01.074Z,96278.75
2023-05-08T08:29:03.727Z,96273.22
2023-05-08T08:30:16.951Z,96281.25
2023-05-08T08:31:20.339Z,96277.72
2023-05-08T08:32:22.237Z,96278.28
2023-05-08T08:33:24.099Z,96282.84
2023-05-08T08:34:26.170Z,96283.88
2023-05-08T08:35:30.802Z,96283.44
2023-05-08T08:36:32.833Z,96278.94
2023-05-08T08:37:34.587Z,96278.03
2023-05-08T08:38:36.898Z,96288.91
2023-05-08T08:39:38.762Z,96281.63
2023-05-08T08:40:42.488Z,96277.94
2023-05-08T08:41:46.909Z,96278.50
2023-05-08T08:42:49.048Z,96280.94
2023-05-08T08:43:51.975Z,96289.06
2023-05-08T08:44:54.220Z,96281.13
2023-05-08T08:45:57.326Z,96284.00
2023-05-08T08:47:00.908Z,96282.63
2023-05-08T08:48:03.536Z,96279.19
2023-05-08T08:49:07.031Z,96281.06
2023-05-08T08:50:12.721Z,96278.50
2023-05-08T08:51:25.157Z,96284.59
2023-05-08T08:52:32.125Z,96281.28
2023-05-08T08:53:39.032Z,96272.22
2023-05-08T08:54:42.181Z,96286.53
2023-05-08T08:55:46.751Z,96281.63
2023-05-08T08:56:50.582Z,96282.84
2023-05-08T08:58:03.834Z,96276.19
2023-05-08T08:59:06.652Z,96281.13
2023-05-08T09:00:09.732Z,96280.69
2023-05-08T09:01:15.972Z,96274.59
2023-05-08T09:02:19.925Z,96281.66
2023-05-08T09:03:22.487Z,96278.38
2023-05-08T09:04:29.959Z,96274.78
2023-05-08T09:05:33.101Z,96276.75
2023-05-08T09:06:37.075Z,96279.38
2023-05-08T09:07:39.219Z,96284.00
2023-05-08T09:08:43.282Z,96281.69
2023-05-08T09:09:46.156Z,96286.97
2023-05-08T09:10:48.532Z,96282.97
2023-05-08T09:11:50.555Z,96283.19
2023-05-08T09:12:53.122Z,96288.78
2023-05-08T09:13:55.781Z,96287.97
2023-05-08T09:14:57.877Z,96278.22
2023-05-08T09:16:00.613Z,96278.91
2023-05-08T09:17:02.980Z,96284.41
2023-05-08T09:18:05.430Z,96283.59
2023-05-08T09:19:07.713Z,96284.06
2023-05-08T09:20:10.489Z,96290.13
2023-05-08T09:21:12.709Z,96292.66
2023-05-08T09:22:14.798Z,96282.38
2023-05-08T09:23:18.404Z,96287.59
2023-05-08T09:24:21.166Z,96287.75
2023-05-08T09:25:23.673Z,96288.72
2023-05-08T09:26:28.753Z,96289.19
2023-05-08T09:27:33.343Z,96294.97
2023-05-08T09:28:35.844Z,96286.00
2023-05-08T09:29:39.014Z,96291.94
2023-05-08T09:30:54.229Z,96291.34
2023-05-08T09:31:57.059Z,96286.94
2023-05-08T09:33:02.279Z,96294.31
2023-05-08T09:34:04.536Z,96286.47
2023-05-08T09:35:07.775Z,96285.56
2023-05-08T09:36:25.047Z,96291.63
2023-05-08T09:37:27.972Z,96291.91
2023-05-08T09:38:36.026Z,96292.09
2023-05-08T09:39:41.804Z,96289.66
2023-05-08T09:40:43.961Z,96291.19
2023-05-08T09:42:06.721Z,96294.88
2023-05-08T09:43:14.932Z,96293.69
2023-05-08T09:44:17.588Z,96291.06
2023-05-08T09:45:31.199Z,96297.56
2023-05-08T09:46:34.681Z,96293.59
2023-05-08T09:47:39.888Z,96293.09
2023-05-08T09:48:42.169Z,96301.72
2023-05-08T09:50:10.599Z,96298.88
2023-05-08T09:51:12.936Z,96296.84
2023-05-08T09:52:16.569Z,96294.25
2023-05-08T09:53:18.862Z,96292.13
2023-05-08T09:54:21.872Z,96301.53
2023-05-08T09:55:24.028Z,96301.25
2023-05-08T09:56:40.128Z,96302.78
2023-05-08T09:57:53.938Z,96297.34
2023-05-08T09:58:55.967Z,96303.31
2023-05-08T10:00:28.127Z,96295.53
2023-05-08T10:01:31.177Z,96295.28
2023-05-08T10:02:35.174Z,96299.47
2023-05-08T10:03:49.531Z,96308.00
2023-05-08T10:04:51.294Z,96303.47
2023-05-08T10:05:52.911Z,96299.75
2023-05-08T10:06:58.660Z,96308.91
2023-05-08T10:08:20.401Z,96301.25
2023-05-08T10:09:22.018Z,96301.56
2023-05-08T10:10:28.690Z,96310.19
2023-05-08T10:11:30.430Z,96304.72
2023-05-08T10:12:33.118Z,96305.53
2023-05-08T10:13:34.686Z,96303.84
2023-05-08T10:14:36.271Z,96301.88
2023-05-08T10:15:38.854Z,96302.81
2023-05-08T10:16:44.862Z,96307.63
2023-05-08T10:18:05.035Z,96309.97
2023-05-08T10:19:12.704Z,96311.94
2023-05-08T10:20:15.748Z,96312.19
2023-05-08T10:21:17.859Z,96307.34
2023-05-08T10:22:20.890Z,96303.72
2023-05-08T10:23:22.681Z,96305.41
2023-05-08T10:24:29.365Z,96305.69
2023-05-08T10:25:33.697Z,96309.84
2023-05-08T10:26:38.105Z,96304.34
2023-05-08T10:27:44.295Z,96312.59
2023-05-08T10:28:54.967Z,96299.63
2023-05-08T10:30:01.274Z,96302.59
2023-05-08T10:31:05.502Z,96301.75
2023-05-08T10:32:09.794Z,96302.34
2023-05-08T10:33:15.356Z,96298.38
2023-05-08T10:34:19.658Z,96301.97
2023-05-08T10:35:22.199Z,96299.25
2023-05-08T10:36:23.969Z,96306.69
2023-05-08T10:37:25.821Z,96296.94
2023-05-08T10:38:27.909Z,96300.38
2023-05-08T10:39:30.723Z,96307.19
2023-05-08T10:40:32.356Z,96305.38
2023-05-08T10:41:34.230Z,96303.50
2023-05-08T10:42:36.409Z,96308.22
2023-05-08T10:43:42.221Z,96306.97
2023-05-08T10:44:44.241Z,96305.72
2023-05-08T10:45:46.375Z,96308.09
2023-05-08T10:47:09.885Z,96308.66
2023-05-08T10:48:30.305Z,96301.19
2023-05-08T10:49:38.694Z,96302.91
2023-05-08T10:51:09.548Z,96295.03
2023-05-08T10:52:16.973Z,96299.41
2023-05-08T10:53:40.911Z,96292.72
2023-05-08T10:54:52.050Z,96299.47
2023-05-08T10:55:55.459Z,96286.78
2023-05-08T10:57:09.033Z,96290.56
2023-05-08T10:58:30.610Z,96288.53
2023-05-08T10:59:35.828Z,96281.59
2023-05-08T11:01:09.417Z,96285.09
2023-05-08T11:02:11.200Z,96282.38
2023-05-08T11:03:23.581Z,96285.75
2023-05-08T11:04:31.992Z,96283.19
2023-05-08T11:05:45.543Z,96276.66
2023-05-08T11:06:49.304Z,96281.53
2023-05-08T11:07:58.388Z,96279.16
2023-05-08T11:09:00.786Z,96284.22
2023-05-08T11:10:07.940Z,96287.31
2023-05-08T11:11:16.266Z,96278.53
2023-05-08T11:12:20.846Z,96280.16
2023-05-08T11:13:36.606Z,96269.31
2023-05-08T11:14:39.884Z,96281.78
2023-05-08T11:15:42.316Z,96276.88
2023-05-08T11:17:02.055Z,96275.69
2023-05-08T11:18:04.948Z,96275.94
2023-05-08T11:19:17.184Z,96271.22
2023-05-08T11:20:23.590Z,96272.22
2023-05-08T11:21:25.330Z,96268.25
2023-05-08T11:22:28.822Z,96274.84
2023-05-08T11:23:32.004Z,96266.16
2023-05-08T11:24:37.380Z,96275.81
2023-05-08T11:25:43.806Z,96270.69
2023-05-08T11:26:48.963Z,96273.56
2023-05-08T11:27:50.656Z,96269.53
2023-05-08T11:28:57.251Z,96271.09
2023-05-08T11:30:20.861Z,96268.06
2023-05-08T11:31:22.988Z,96274.25
2023-05-08T11:33:03.150Z,96268.31
2023-05-08T11:34:04.815Z,96266.94
2023-05-08T11:35:11.203Z,96262.22
2023-05-08T11:36:15.677Z,96270.66
2023-05-08T11:37:17.167Z,96265.16
2023-05-08T11:38:26.132Z,96265.28
2023-05-08T11:39:27.777Z,96272.34
2023-05-08T11:41:00.047Z,96267.88
2023-05-08T11:42:29.450Z,96270.34
2023-05-08T11:43:34.034Z,96265.50
2023-05-08T11:44:36.335Z,96263.38
2023-05-08T11:45:40.466Z,96266.72
2023-05-08T11:46:43.343Z,96272.44
2023-05-08T11:47:45.991Z,96262.50
2023-05-08T11:48:47.854Z,96264.06
2023-05-08T11:49:49.454Z,96262.84
2023-05-08T11:50:51.413Z,96263.84
2023-05-08T11:51:58.147Z,96273.19
2023-05-08T11:52:59.800Z,96271.22
2023-05-08T11:54:02.343Z,96265.34
2023-05-08T11:55:11.927Z,96270.66
2023-05-08T11:56:13.682Z,96270.75
2023-05-08T11:57:17.460Z,96262.03
2023-05-08T11:58:19.202Z,96263.63
2023-05-08T11:59:21.289Z,96270.53
2023-05-08T12:00:23.163Z,96263.13
2023-05-08T12:01:24.761Z,96266.28
2023-05-08T12:02:40.701Z,96259.88
2023-05-08T12:03:42.485Z,96266.59
2023-05-08T12:04:45.756Z,96262.94
2023-05-08T12:05:48.674Z,96266.75
2023-05-08T12:06:51.544Z,96266.22
2023-05-08T12:07:53.166Z,96262.13
2023-05-08T12:08:54.714Z,96256.31
2023-05-08T12:09:56.281Z,96265.69
2023-05-08T12:10:58.180Z,96257.03
2023-05-08T12:11:59.948Z,96269.47
2023-05-08T12:13:01.615Z,96267.69
2023-05-08T12:14:03.354Z,96266.94
2023-05-08T12:15:23.164Z,96259.25
2023-05-08T12:16:25.938Z,96266.41
2023-05-08T12:17:27.619Z,96264.06
2023-05-08T12:18:30.810Z,96262.31
2023-05-08T12:19:32.440Z,96257.78
2023-05-08T12:20:34.077Z,96261.81
2023-05-08T12:21:35.933Z,96263.25
2023-05-08T12:22:39.087Z,96272.56
2023-05-08T12:23:40.662Z,96259.94
2023-05-08T12:24:42.235Z,96267.16
2023-05-08T12:25:43.789Z,96270.66
2023-05-08T12:26:46.378Z,96271.63
2023-05-08T12:27:48.091Z,96273.06
2023-05-08T12:28:55.748Z,96272.56
2023-05-08T12:29:57.985Z,96270.78
2023-05-08T12:30:59.844Z,96270.44
2023-05-08T12:32:01.453Z,96272.13
2023-05-08T12:33:04.677Z,96267.31
2023-05-08T12:34:06.626Z,96271.78
2023-05-08T12:35:09.407Z,96272.03
2023-05-08T12:36:11.062Z,96267.72
2023-05-08T12:37:23.473Z,96275.03
2023-05-08T12:38:26.617Z,96262.66
2023-05-08T12:39:28.185Z,96269.63
2023-05-08T12:40:32.183Z,96272.56
2023-05-08T12:41:33.749Z,96268.50
2023-05-08T12:42:51.194Z,96268.16
2023-05-08T12:43:52.775Z,96271.53
2023-05-08T12:44:54.376Z,96268.38
2023-05-08T12:45:56.076Z,96266.78